Time;durP1;ratioP1;P1;durP2;ratioP2;P2;SDS_P1;SDS_P2;PMS_P1;PMS_P2;Temp;Humidity;BMP_temperature;BMP_pressure;BME280_temperature;BME280_humidity;BME280_pressure;Samples;Min_cycle;Max_cycle;Signal;HPM_P1;HPM_P2
2022/01/05 03:57:43;;;;;;;19.50;11.48;;;;;;;-6.87;87.71;98603.88;6214652;23;20031;-74
2022/01/05 04:00:10;;;;;;;15.63;8.70;;;;;;;-6.83;88.00;98615.69;6214423;23;20016;-75
2022/01/05 04:02:39;;;;;;;26.20;15.43;;;;;;;-6.81;87.67;98624.16;6214674;23;20427;-74
2022/01/05 04:05:08;;;;;;;14.40;9.75;;;;;;;-6.89;87.41;98586.16;6239181;23;20023;-75
2022/01/05 04:07:34;;;;;;;15.50;9.10;;;;;;;-6.82;87.50;98598.78;6215032;23;20081;-74
2022/01/05 04:10:01;;;;;;;18.13;10.68;;;;;;;-6.80;87.05;98605.53;6214521;23;20372;-74
2022/01/05 04:12:27;;;;;;;15.85;9.70;;;;;;;-6.91;87.96;98587.88;6214425;23;20024;-74
2022/01/05 04:14:53;;;;;;;20.17;11.80;;;;;;;-6.85;87.27;98576.84;6214017;23;20024;-74
2022/01/05 04:17:21;;;;;;;30.27;15.23;;;;;;;-6.85;87.11;98597.13;6189161;23;20020;-74
2022/01/05 04:19:47;;;;;;;21.90;11.43;;;;;;;-6.91;87.48;98587.88;6188755;23;20020;-75
2022/01/05 04:22:16;;;;;;;20.48;12.95;;;;;;;-6.87;87.11;98592.03;6241313;23;20066;-74
2022/01/05 04:24:42;;;;;;;18.42;12.68;;;;;;;-6.95;87.64;98570.13;6164679;23;20368;-75
2022/01/05 04:27:08;;;;;;;20.23;12.77;;;;;;;-6.83;87.42;98589.50;6239835;23;20020;-75
2022/01/05 04:29:34;;;;;;;24.48;13.30;;;;;;;-6.91;87.39;98576.88;6181657;23;20016;-75
2022/01/05 04:32:00;;;;;;;18.48;11.75;;;;;;;-6.80;87.32;98597.91;6214318;23;20050;-74
2022/01/05 04:34:26;;;;;;;22.30;11.75;;;;;;;-6.83;87.53;98587.81;6214266;23;20039;-75
2022/01/05 04:36:53;;;;;;;20.48;13.82;;;;;;;-6.84;87.38;98578.53;6214511;23;20056;-74
2022/01/05 04:39:19;;;;;;;15.70;11.07;;;;;;;-6.81;87.27;98572.59;6216934;23;20039;-73
2022/01/05 04:41:45;;;;;;;11.00;8.75;;;;;;;-6.76;87.40;98584.38;6242221;23;20074;-74
2022/01/05 04:44:11;;;;;;;15.88;9.63;;;;;;;-6.77;87.20;98584.41;6241510;23;20456;-74
2022/01/05 04:46:37;;;;;;;19.00;12.88;;;;;;;-6.69;87.32;98593.63;6188858;23;20175;-74
2022/01/05 04:49:04;;;;;;;18.60;8.90;;;;;;;-6.71;86.92;98592.81;6189076;23;20464;-74
2022/01/05 04:51:30;;;;;;;12.82;8.95;;;;;;;-6.71;86.90;98589.44;6239049;23;20023;-75
2022/01/05 04:53:56;;;;;;;11.13;8.73;;;;;;;-6.76;87.03;98597.06;6213143;23;20020;-73
2022/01/05 04:56:22;;;;;;;21.42;11.98;;;;;;;-6.91;87.23;98567.59;6227234;22;20573;-74
2022/01/05 04:58:49;;;;;;;22.25;10.57;;;;;;;-6.81;86.99;98578.50;6169946;22;20019;-75
2022/01/05 05:01:15;;;;;;;12.25;8.98;;;;;;;-6.77;87.96;98590.28;6271454;22;20126;-75
2022/01/05 05:03:41;;;;;;;25.42;11.27;;;;;;;-6.80;87.66;98587.78;6271062;22;20310;-74
2022/01/05 05:06:08;;;;;;;17.98;9.88;;;;;;;-6.90;87.26;98571.78;6271594;22;20051;-74
2022/01/05 05:08:34;;;;;;;11.48;6.88;;;;;;;-6.82;87.04;98576.81;6244424;22;20019;-75
2022/01/05 05:11:00;;;;;;;12.30;9.82;;;;;;;-6.87;86.87;98568.38;6244061;22;20149;-74
2022/01/05 05:13:26;;;;;;;16.50;10.70;;;;;;;-6.81;87.13;98563.28;6244289;22;20043;-75
2022/01/05 05:15:53;;;;;;;9.68;8.25;;;;;;;-6.84;86.89;98570.06;6169969;22;20128;-75
2022/01/05 05:18:22;;;;;;;16.73;10.00;;;;;;;-6.82;87.12;98573.44;6219010;22;20026;-73
2022/01/05 05:20:48;;;;;;;16.38;10.85;;;;;;;-6.86;87.11;98562.47;6218844;22;20467;-75
2022/01/05 05:23:16;;;;;;;15.55;11.18;;;;;;;-6.83;87.01;98567.50;6195046;22;20024;-74
2022/01/05 05:25:43;;;;;;;13.32;10.32;;;;;;;-6.80;86.94;98556.50;6219213;22;20094;-74
2022/01/05 05:28:11;;;;;;;16.35;10.52;;;;;;;-6.86;86.87;98544.72;6194248;22;20043;-75
2022/01/05 05:30:37;;;;;;;9.85;8.55;;;;;;;-6.84;87.30;98545.56;6169831;22;20027;-74
2022/01/05 05:33:03;;;;;;;14.38;11.43;;;;;;;-6.88;86.48;98516.00;6220293;22;20024;-74
2022/01/05 05:35:30;;;;;;;14.82;7.38;;;;;;;-6.78;86.91;98544.66;6194255;22;20015;-74
2022/01/05 05:37:56;;;;;;;12.15;8.70;;;;;;;-6.79;86.91;98541.28;6244277;22;20487;-74
2022/01/05 05:40:25;;;;;;;19.83;11.82;;;;;;;-6.82;86.80;98536.22;6245142;22;20046;-74
2022/01/05 05:42:51;;;;;;;11.98;8.18;;;;;;;-6.77;86.77;98516.75;6272229;22;20020;-75
2022/01/05 05:45:18;;;;;;;14.73;10.05;;;;;;;-6.81;87.00;98502.41;6155606;22;20271;-76
2022/01/05 05:47:44;;;;;;;8.23;6.82;;;;;;;-6.85;86.96;98505.81;6236475;22;20015;-77
2022/01/05 05:50:14;;;;;;;16.70;10.48;;;;;;;-6.81;87.00;98506.66;6213673;22;20613;-80
2022/01/05 05:52:40;;;;;;;9.13;7.97;;;;;;;-6.85;87.19;98495.69;6289732;22;20019;-75
2022/01/05 05:55:06;;;;;;;18.15;9.32;;;;;;;-6.84;86.93;98491.47;6261563;22;20406;-75
2022/01/05 05:57:32;;;;;;;10.50;7.97;;;;;;;-6.91;87.06;98478.00;6194453;23;20445;-77
2022/01/05 05:59:59;;;;;;;10.57;9.48;;;;;;;-6.90;87.48;98482.19;6213264;23;20024;-77
2022/01/05 06:02:25;;;;;;;18.83;10.90;;;;;;;-6.90;87.22;98483.03;6162020;23;20508;-76
2022/01/05 06:04:51;;;;;;;16.33;11.15;;;;;;;-6.94;86.52;98475.47;6162848;23;20392;-77
2022/01/05 06:07:18;;;;;;;14.65;10.93;;;;;;;-6.95;87.35;98479.69;6239441;23;20023;-77
2022/01/05 06:09:44;;;;;;;15.52;12.43;;;;;;;-6.90;87.32;98442.47;6188799;23;20016;-76
2022/01/05 06:12:10;;;;;;;11.48;10.27;;;;;;;-6.85;87.31;98475.41;6164969;23;20020;-76
2022/01/05 06:14:36;;;;;;;12.52;9.27;;;;;;;-6.93;87.26;98474.59;6242130;23;20016;-77
2022/01/05 06:17:03;;;;;;;16.95;12.82;;;;;;;-6.89;87.32;98469.50;6192096;23;20071;-76
2022/01/05 06:19:29;;;;;;;14.27;11.93;;;;;;;-6.97;87.10;98461.09;6214630;23;20094;-77
2022/01/05 06:21:55;;;;;;;20.90;12.00;;;;;;;-6.93;87.51;98452.63;6214986;23;20023;-77
2022/01/05 06:24:21;;;;;;;14.35;9.45;;;;;;;-6.86;87.23;98488.91;6216899;23;20020;-76
2022/01/05 06:26:47;;;;;;;10.63;8.20;;;;;;;-6.84;87.24;98482.16;6245337;23;20023;-76
2022/01/05 06:29:13;;;;;;;13.23;11.15;;;;;;;-6.82;87.17;98499.88;6245212;23;20070;-77
2022/01/05 06:31:40;;;;;;;11.88;8.38;;;;;;;-6.82;87.07;98485.50;6194314;23;20028;-77
2022/01/05 06:34:06;;;;;;;12.32;9.20;;;;;;;-6.79;86.80;98490.56;6167087;23;20012;-77
2022/01/05 06:36:34;;;;;;;24.33;17.48;;;;;;;-6.83;87.67;98477.91;6167923;23;20115;-75
2022/01/05 06:39:02;;;;;;;18.20;13.68;;;;;;;-6.82;87.34;98482.97;6217747;23;20107;-74
2022/01/05 06:41:29;;;;;;;7.40;6.70;;;;;;;-6.79;87.46;98477.88;6170535;23;20016;-75
2022/01/05 06:43:57;;;;;;;15.02;8.88;;;;;;;-6.80;87.51;98470.28;6193105;23;20052;-77
2022/01/05 06:46:25;;;;;;;7.82;7.05;;;;;;;-6.76;87.76;98485.47;6194917;23;20080;-76
2022/01/05 06:48:52;;;;;;;23.27;10.95;;;;;;;-6.87;87.83;98482.16;6243269;23;20020;-76
2022/01/05 06:51:18;;;;;;;17.08;10.45;;;;;;;-6.90;87.56;98474.56;6215438;23;20024;-76
2022/01/05 06:53:44;;;;;;;18.92;8.90;;;;;;;-6.88;87.26;98475.44;6213706;23;20016;-76
2022/01/05 06:56:10;;;;;;;17.17;12.40;;;;;;;-6.96;87.84;98457.72;6149365;22;20113;-77
2022/01/05 06:58:36;;;;;;;17.95;10.63;;;;;;;-6.94;87.18;98452.66;6270795;22;20026;-77
2022/01/05 07:01:02;;;;;;;18.55;12.15;;;;;;;-6.99;87.62;98449.31;6193899;22;20065;-75
2022/01/05 07:03:29;;;;;;;11.98;9.20;;;;;;;-6.97;87.36;98453.50;6218514;22;20144;-76
2022/01/05 07:05:55;;;;;;;17.08;10.38;;;;;;;-6.86;87.48;98468.63;6270112;22;20977;-76
2022/01/05 07:08:24;;;;;;;11.88;9.25;;;;;;;-6.96;87.08;98449.28;6218589;22;20015;-75
2022/01/05 07:10:50;;;;;;;20.25;10.60;;;;;;;-6.82;87.24;98460.16;6218225;22;20016;-76
2022/01/05 07:13:16;;;;;;;10.18;8.65;;;;;;;-6.95;87.16;98446.75;6196213;22;20502;-76
2022/01/05 07:15:42;;;;;;;13.43;7.00;;;;;;;-6.93;87.80;98447.56;6222066;22;20028;-78
2022/01/05 07:18:09;;;;;;;15.27;8.65;;;;;;;-6.89;87.28;98453.44;6199081;22;20019;-75
2022/01/05 07:20:35;;;;;;;10.02;8.20;;;;;;;-6.97;87.00;98445.06;6248539;22;20073;-76
2022/01/05 07:23:01;;;;;;;11.27;9.02;;;;;;;-6.95;87.33;98443.34;6220312;22;20015;-75
2022/01/05 07:25:28;;;;;;;11.70;7.30;;;;;;;-6.98;87.62;98439.16;6195120;22;20094;-75
2022/01/05 07:27:54;;;;;;;8.70;7.80;;;;;;;-6.95;87.49;98443.34;6146388;22;20028;-76
2022/01/05 07:30:20;;;;;;;11.65;8.38;;;;;;;-6.99;86.88;98431.56;6147597;22;20093;-78
2022/01/05 07:33:20;;;;;;;11.38;8.82;;;;;;;-7.04;87.27;98440.91;6220180;22;20019;-75
2022/01/05 07:35:46;;;;;;;14.95;7.47;;;;;;;-6.97;87.46;98445.06;6189965;22;20480;-75
2022/01/05 07:38:13;;;;;;;6.55;5.95;;;;;;;-7.00;87.39;98429.91;6196116;22;20069;-78
2022/01/05 07:40:39;;;;;;;10.57;8.70;;;;;;;-6.99;87.65;98412.13;6220296;22;20015;-75
2022/01/05 07:43:06;;;;;;;10.35;9.10;;;;;;;-7.01;87.79;98410.47;6220474;22;20016;-75
2022/01/05 07:45:35;;;;;;;14.82;6.13;;;;;;;-6.94;87.71;98412.09;6195628;22;20024;-76
2022/01/05 07:48:04;;;;;;;10.55;8.73;;;;;;;-6.96;87.47;98401.09;6219624;22;20348;-77
2022/01/05 07:50:30;;;;;;;9.20;8.30;;;;;;;-6.99;87.57;98406.19;6271348;22;20133;-79
2022/01/05 07:53:00;;;;;;;8.95;6.97;;;;;;;-6.99;87.85;98391.00;6203425;22;20415;-80
2022/01/05 07:55:31;;;;;;;12.30;9.38;;;;;;;-6.92;87.90;98395.16;6206046;22;20011;-80
2022/01/05 07:58:00;;;;;;;13.63;9.68;;;;;;;-6.93;88.01;98375.72;6204946;22;20019;-81
2022/01/05 08:00:26;;;;;;;7.60;6.90;;;;;;;-6.99;88.58;98366.47;6198160;22;20108;-77
2022/01/05 08:02:54;;;;;;;8.35;7.13;;;;;;;-6.88;89.00;98353.72;6245629;22;20024;-76
2022/01/05 08:05:22;;;;;;;9.40;7.07;;;;;;;-6.83;88.71;98351.94;6170933;22;20169;-77
2022/01/05 08:07:48;;;;;;;11.07;9.05;;;;;;;-6.80;88.47;98349.38;6219488;22;20031;-74
2022/01/05 08:10:15;;;;;;;11.85;9.18;;;;;;;-6.84;88.92;98344.38;6194923;22;20027;-75
2022/01/05 08:12:43;;;;;;;14.10;8.32;;;;;;;-6.80;88.86;98334.16;6145061;22;20031;-74
2022/01/05 08:15:11;;;;;;;6.20;5.53;;;;;;;-6.76;88.35;98338.34;6170264;22;20020;-78
2022/01/05 08:17:39;;;;;;;6.40;5.55;;;;;;;-6.73;88.73;98335.78;6195346;22;20024;-82
2022/01/05 08:20:09;;;;;;;12.98;6.63;;;;;;;-6.68;88.50;98335.75;6195509;22;20065;-75
2022/01/05 08:22:40;;;;;;;7.20;5.65;;;;;;;-6.70;88.51;98325.59;6171842;22;20039;-76
2022/01/05 08:25:34;;;;;;;8.27;7.47;;;;;;;-6.83;88.73;98313.91;6267706;22;20022;-77
2022/01/05 08:28:00;;;;;;;7.38;6.20;;;;;;;-6.87;89.05;98285.22;6244708;22;20015;-77
2022/01/05 08:30:27;;;;;;;9.95;7.70;;;;;;;-6.80;88.99;98301.19;6193022;22;20016;-78
2022/01/05 08:32:54;;;;;;;6.75;6.13;;;;;;;-6.89;89.58;98283.56;6271000;22;20026;-77
2022/01/05 08:35:21;;;;;;;9.88;8.77;;;;;;;-6.77;88.97;98280.88;6194358;22;20388;-77
2022/01/05 08:37:48;;;;;;;8.95;7.45;;;;;;;-6.73;89.67;98262.22;6221406;22;20015;-77
2022/01/05 08:40:15;;;;;;;13.45;8.32;;;;;;;-6.81;88.60;98261.50;6173989;22;20026;-77
2022/01/05 08:42:42;;;;;;;12.23;9.40;;;;;;;-6.75;88.62;98263.13;6221825;22;20365;-78
2022/01/05 08:45:08;;;;;;;7.68;6.93;;;;;;;-6.67;89.21;98262.16;6193379;22;20035;-77
2022/01/05 08:47:36;;;;;;;7.97;6.50;;;;;;;-6.63;88.90;98261.25;6170547;22;20019;-75
2022/01/05 08:50:02;;;;;;;15.52;10.65;;;;;;;-6.64;88.80;98246.91;6193828;22;20043;-77
2022/01/05 08:52:28;;;;;;;7.43;6.70;;;;;;;-6.73;88.97;98249.56;6221355;22;20486;-77
2022/01/05 08:54:54;;;;;;;8.82;6.88;;;;;;;-6.76;88.95;98241.97;6221578;22;20097;-76
2022/01/05 08:57:21;;;;;;;9.02;7.10;;;;;;;-6.82;89.32;98228.53;6191492;22;20027;-76
2022/01/05 08:59:51;;;;;;;13.48;7.65;;;;;;;-6.82;89.03;98216.72;6268389;22;20023;-76
2022/01/05 09:02:18;;;;;;;11.00;7.72;;;;;;;-6.81;89.08;98207.41;6193205;22;20028;-76
2022/01/05 09:04:44;;;;;;;8.88;7.55;;;;;;;-6.64;89.08;98231.69;6216741;22;20443;-77
2022/01/05 09:07:10;;;;;;;11.07;8.55;;;;;;;-6.64;89.45;98226.59;6242465;22;20364;-77
2022/01/05 09:09:37;;;;;;;12.60;8.07;;;;;;;-6.77;89.20;98199.72;6216870;22;20064;-78
2022/01/05 09:12:03;;;;;;;7.28;5.82;;;;;;;-6.64;89.44;98202.97;6240535;22;20050;-77
2022/01/05 09:14:30;;;;;;;10.50;8.25;;;;;;;-6.65;89.57;98194.50;6217769;22;20035;-77
2022/01/05 09:16:56;;;;;;;15.73;8.95;;;;;;;-6.53;89.48;98175.72;6219007;22;20482;-77
2022/01/05 09:19:23;;;;;;;6.97;5.15;;;;;;;-6.66;89.53;98164.91;6219587;22;20068;-78
2022/01/05 09:21:49;;;;;;;8.68;6.65;;;;;;;-6.53;89.37;98186.72;6219266;22;20026;-78
2022/01/05 09:24:16;;;;;;;9.25;7.35;;;;;;;-6.55;89.55;98160.53;6219923;22;20448;-78
2022/01/05 09:26:43;;;;;;;13.38;6.70;;;;;;;-6.45;89.52;98156.16;6218503;22;20030;-78
2022/01/05 09:29:09;;;;;;;14.32;6.97;;;;;;;-6.44;90.06;98168.81;6244567;22;20439;-77
2022/01/05 09:31:35;;;;;;;7.50;6.18;;;;;;;-6.35;89.47;98158.53;6194611;22;20032;-78
2022/01/05 09:34:02;;;;;;;17.83;9.45;;;;;;;-6.44;89.16;98143.44;6245612;22;20371;-78
2022/01/05 09:36:36;;;;;;;19.80;11.20;;;;;;;-6.36;89.81;98136.56;6219762;22;20050;-78
2022/01/05 09:42:00;;;;;;;6.78;6.18;;;;;;;-6.49;89.74;98094.50;6223473;22;20024;-77
2022/01/05 09:44:32;;;;;;;19.30;9.90;;;;;;;-6.49;89.41;98099.56;6222391;22;20388;-77
2022/01/05 09:47:05;;;;;;;9.35;8.02;;;;;;;-6.40;90.30;98101.09;6219525;22;20027;-78
2022/01/05 09:49:36;;;;;;;13.63;9.10;;;;;;;-6.40;90.10;98089.25;6220231;22;20028;-77
2022/01/05 09:52:07;;;;;;;9.00;7.43;;;;;;;-6.45;89.18;98080.91;6219451;22;20142;-77
2022/01/05 09:54:35;;;;;;;15.88;10.85;;;;;;;-6.42;90.36;98045.31;6244989;22;20054;-77
2022/01/05 09:57:05;;;;;;;9.63;6.88;;;;;;;-6.39;90.26;98060.50;6243329;22;20027;-76
2022/01/05 09:59:34;;;;;;;8.55;7.72;;;;;;;-6.40;89.88;98005.53;6244296;22;20015;-77
2022/01/05 10:02:00;;;;;;;5.75;5.00;;;;;;;-6.35;90.70;98048.59;6243984;22;20426;-77
2022/01/05 10:04:26;;;;;;;10.77;9.60;;;;;;;-6.41;90.46;98020.75;6270713;22;20026;-76
2022/01/05 10:06:52;;;;;;;14.00;8.57;;;;;;;-6.43;90.13;98017.41;6218258;22;20026;-77
2022/01/05 10:09:19;;;;;;;10.27;9.05;;;;;;;-6.40;89.63;97997.91;6194050;22;20011;-76
2022/01/05 10:11:45;;;;;;;9.90;7.65;;;;;;;-6.50;90.77;97993.00;6217540;22;20019;-76
2022/01/05 10:14:13;;;;;;;10.80;8.98;;;;;;;-6.38;90.32;98003.78;6218208;22;20022;-76
2022/01/05 10:16:40;;;;;;;11.55;9.25;;;;;;;-6.44;89.92;97986.13;6217291;22;20015;-76
2022/01/05 10:19:08;;;;;;;13.07;8.10;;;;;;;-6.45;90.46;97973.50;6271222;22;20024;-76
2022/01/05 10:21:35;;;;;;;8.77;7.65;;;;;;;-6.52;91.13;97972.75;6218696;22;20078;-77
2022/01/05 10:24:02;;;;;;;8.32;7.25;;;;;;;-6.54;91.36;97968.56;6194669;22;20016;-77
2022/01/05 10:26:36;;;;;;;14.43;9.55;;;;;;;-6.49;91.60;97954.94;6167981;22;20490;-77
2022/01/05 10:29:16;;;;;;;11.73;9.77;;;;;;;-6.57;91.37;97939.00;6216954;22;20106;-76
2022/01/05 10:31:42;;;;;;;23.80;15.85;;;;;;;-6.48;91.44;97979.44;6170251;22;20046;-76
2022/01/05 10:34:21;;;;;;;8.10;6.38;;;;;;;-6.47;91.28;97955.75;6194193;22;20028;-77
2022/01/05 10:36:54;;;;;;;19.90;13.27;;;;;;;-6.53;91.03;97953.31;6224459;22;20145;-79
2022/01/05 10:39:42;;;;;;;15.00;11.10;;;;;;;-6.73;91.33;97907.19;6168524;22;20337;-78
2022/01/05 10:42:23;;;;;;;11.63;10.43;;;;;;;-6.62;91.53;97929.81;6253590;22;20389;-79
2022/01/05 10:44:57;;;;;;;9.68;7.38;;;;;;;-6.64;91.70;97946.78;6202315;22;20495;-77
2022/01/05 10:48:09;;;;;;;10.95;8.30;;;;;;;-6.58;91.00;97951.75;6205186;22;20019;-79
2022/01/05 10:50:38;;;;;;;12.90;9.32;;;;;;;-6.72;90.97;97898.72;6170407;22;20448;-78
2022/01/05 10:53:05;;;;;;;15.45;12.18;;;;;;;-6.66;91.61;97913.81;6173815;22;20482;-78
2022/01/05 10:55:32;;;;;;;13.65;10.20;;;;;;;-6.77;91.30;97905.56;6272696;22;20463;-77
2022/01/05 10:58:15;;;;;;;28.45;15.43;;;;;;;-6.67;92.07;97929.88;6202205;22;20019;-77
2022/01/05 11:00:52;;;;;;;14.38;9.27;;;;;;;-6.78;91.49;97883.63;6197106;22;20023;-77
2022/01/05 11:03:38;;;;;;;14.50;10.85;;;;;;;-6.80;91.82;97865.03;6219671;22;20024;-76
2022/01/05 11:06:30;;;;;;;14.63;8.68;;;;;;;-6.76;92.74;97864.13;6228808;22;20102;-76
2022/01/05 11:09:00;;;;;;;19.45;12.15;;;;;;;-6.73;93.50;97860.69;6146397;22;20363;-76
2022/01/05 11:11:36;;;;;;;18.85;11.20;;;;;;;-6.76;93.55;97864.13;6170412;22;20046;-75
2022/01/05 11:14:19;;;;;;;25.63;12.13;;;;;;;-6.57;93.01;97862.91;6172513;22;20019;-75
2022/01/05 11:16:52;;;;;;;15.48;9.43;;;;;;;-6.60;93.15;97846.91;6243659;22;20359;-75
2022/01/05 11:19:33;;;;;;;17.67;12.23;;;;;;;-6.63;93.17;97832.59;6196903;22;20027;-75
2022/01/05 11:22:13;;;;;;;13.93;10.93;;;;;;;-6.60;93.42;97826.63;6197196;22;20022;-76
2022/01/05 11:24:53;;;;;;;30.15;16.15;;;;;;;-6.55;94.70;97840.91;6149131;22;20046;-74
2022/01/05 11:27:28;;;;;;;9.50;8.35;;;;;;;-6.55;94.38;97835.84;6170063;22;20101;-76
2022/01/05 11:29:58;;;;;;;15.15;10.75;;;;;;;-6.53;94.77;97838.31;6195998;22;20144;-76
2022/01/05 11:32:30;;;;;;;13.95;11.52;;;;;;;-6.54;94.99;97806.19;6171202;22;20020;-80
2022/01/05 11:35:07;;;;;;;15.13;11.30;;;;;;;-6.59;95.23;97821.53;6197497;22;20074;-76
2022/01/05 11:37:36;;;;;;;8.20;6.07;;;;;;;-6.49;95.48;97815.41;6147796;22;20372;-76
2022/01/05 11:40:05;;;;;;;14.35;9.73;;;;;;;-6.48;95.56;97834.81;6194351;22;20019;-75
2022/01/05 11:42:34;;;;;;;18.83;14.45;;;;;;;-6.40;94.77;97820.28;6170194;22;20110;-75
2022/01/05 11:45:01;;;;;;;18.67;13.02;;;;;;;-6.39;94.87;97801.66;6219588;22;20020;-75
2022/01/05 11:47:37;;;;;;;15.13;13.00;;;;;;;-6.47;95.09;97777.31;6219932;22;20019;-77
2022/01/05 11:50:26;;;;;;;20.77;14.00;;;;;;;-6.34;95.28;97804.94;6246655;22;20018;-76
2022/01/05 11:52:56;;;;;;;18.35;12.23;;;;;;;-6.48;94.76;97756.16;6195113;22;20110;-77
2022/01/05 11:55:24;;;;;;;14.77;11.00;;;;;;;-6.34;95.16;97799.84;6220391;22;20022;-75
2022/01/05 11:58:27;;;;;;;18.33;11.65;;;;;;;-6.27;95.66;97805.63;6170120;22;20074;-76
2022/01/05 12:01:12;;;;;;;18.05;10.35;;;;;;;-6.24;95.18;97809.81;6093728;23;20618;-76
2022/01/05 12:03:56;;;;;;;19.48;11.65;;;;;;;-6.25;95.41;97796.31;6209090;22;20030;-76
2022/01/05 12:06:35;;;;;;;13.30;11.77;;;;;;;-6.36;95.64;97785.53;6223463;22;20158;-81
2022/01/05 12:09:40;;;;;;;18.77;13.75;;;;;;;-6.23;95.61;97802.19;6200537;22;20059;-78
2022/01/05 12:12:35;;;;;;;13.88;9.88;;;;;;;-6.24;96.37;97792.88;6219660;22;20524;-79
2022/01/05 12:15:05;;;;;;;20.48;11.63;;;;;;;-6.25;96.76;97777.72;6179665;22;20368;-77
2022/01/05 12:17:34;;;;;;;14.82;11.23;;;;;;;-6.26;96.37;97771.78;6196389;22;20047;-78
2022/01/05 12:20:10;;;;;;;16.92;10.57;;;;;;;-6.16;96.76;97782.56;6179556;22;20415;-79
2022/01/05 12:22:40;;;;;;;20.55;13.02;;;;;;;-6.26;96.30;97755.72;6174155;22;20019;-78
2022/01/05 12:25:09;;;;;;;13.30;9.82;;;;;;;-6.08;95.71;97778.13;6174369;22;20015;-78
2022/01/05 12:27:54;;;;;;;13.70;10.73;;;;;;;-6.11;95.83;97770.59;6221107;22;20085;-78
2022/01/05 12:30:20;;;;;;;12.02;9.30;;;;;;;-6.09;96.28;97781.56;6251577;22;20020;-81
2022/01/05 12:32:49;;;;;;;15.27;8.93;;;;;;;-6.09;95.91;97773.97;6272916;22;20022;-79
2022/01/05 12:35:19;;;;;;;14.70;11.43;;;;;;;-6.09;96.33;97764.66;6198552;22;20027;-80
2022/01/05 12:37:55;;;;;;;12.98;9.82;;;;;;;-6.11;95.83;97737.59;6249117;22;20313;-79
2022/01/05 12:40:59;;;;;;;10.02;8.50;;;;;;;-6.06;95.82;97758.66;6180883;22;20046;-80
2022/01/05 12:43:28;;;;;;;13.43;7.80;;;;;;;-6.07;96.20;97767.13;6097301;23;20051;-78
2022/01/05 12:46:32;;;;;;;10.90;7.72;;;;;;;-6.01;95.95;97761.91;6006916;23;20558;-80
2022/01/05 12:48:59;;;;;;;11.90;8.93;;;;;;;-6.03;95.92;97763.66;6135678;22;20036;-78
2022/01/05 12:51:39;;;;;;;10.40;9.13;;;;;;;-6.00;95.75;97755.97;6230679;22;20015;-77
2022/01/05 12:54:19;;;;;;;8.63;7.45;;;;;;;-5.98;96.91;97762.66;6171372;22;20042;-79
2022/01/05 12:56:57;;;;;;;7.90;7.20;;;;;;;-5.97;96.67;97743.19;6196952;22;20023;-79
2022/01/05 12:59:29;;;;;;;11.48;8.50;;;;;;;-5.99;96.73;97734.78;6219487;22;20415;-78
2022/01/05 13:02:00;;;;;;;10.27;7.97;;;;;;;-6.04;97.29;97731.50;6219721;22;20023;-78
2022/01/05 13:05:23;;;;;;;10.18;7.82;;;;;;;-6.00;97.30;97733.13;6174612;22;20377;-78
2022/01/05 13:07:50;;;;;;;13.57;9.32;;;;;;;-6.05;96.69;97719.72;6203571;22;20024;-78
2022/01/05 13:10:44;;;;;;;9.32;8.43;;;;;;;-6.01;96.69;97721.28;6210968;22;20039;-81
2022/01/05 13:13:46;;;;;;;8.10;6.82;;;;;;;-5.99;96.63;97719.56;6292778;22;20019;-80
2022/01/05 13:17:11;;;;;;;9.38;8.45;;;;;;;-5.99;97.29;97711.94;6225225;22;20023;-80
2022/01/05 13:19:51;;;;;;;9.55;8.45;;;;;;;-6.00;96.40;97706.03;6204449;22;20026;-75
2022/01/05 13:22:26;;;;;;;9.55;7.03;;;;;;;-6.01;96.73;97683.19;6248167;22;20031;-78
2022/01/05 13:24:55;;;;;;;11.48;8.73;;;;;;;-5.97;97.07;97712.72;6170208;22;20364;-77
2022/01/05 13:27:36;;;;;;;8.43;7.00;;;;;;;-6.01;96.81;97694.19;6195194;22;20020;-80
2022/01/05 13:30:05;;;;;;;5.15;4.35;;;;;;;-6.05;97.06;97689.25;6153732;22;20424;-81
2022/01/05 13:32:32;;;;;;;14.93;8.70;;;;;;;-6.02;96.61;97694.25;6256065;22;20035;-82
2022/01/05 13:35:05;;;;;;;8.90;8.02;;;;;;;-5.93;96.46;97699.94;6230672;22;20356;-80
2022/01/05 13:37:36;;;;;;;7.85;6.93;;;;;;;-5.93;96.82;97699.94;6221766;22;20127;-79
2022/01/05 13:40:10;;;;;;;11.05;8.48;;;;;;;-5.93;96.33;97696.56;6250109;22;20489;-78
2022/01/05 13:42:37;;;;;;;9.68;8.40;;;;;;;-5.95;96.08;97681.34;6222589;22;20528;-78
2022/01/05 13:45:18;;;;;;;8.43;7.53;;;;;;;-5.91;96.38;97697.34;6227607;22;20066;-78
2022/01/05 13:47:47;;;;;;;7.40;6.70;;;;;;;-5.98;96.54;97680.59;6226716;22;20031;-80
2022/01/05 13:50:19;;;;;;;3.40;3.20;;;;;;;-5.95;96.49;97676.28;6173305;22;20484;-80
2022/01/05 13:52:45;;;;;;;;;;;;;;;-5.86;96.59;97695.53;6276857;22;20026;-79
2022/01/05 13:55:29;;;;;;;8.40;6.75;;;;;;;-5.88;96.20;97677.78;6171045;22;19950;-79
2022/01/05 13:58:29;;;;;;;13.40;8.63;;;;;;;-5.87;96.62;97673.56;6222678;22;20054;-79
2022/01/05 14:01:09;;;;;;;5.47;4.95;;;;;;;-5.84;96.73;97670.91;6174036;22;20020;-81
2022/01/05 14:03:44;;;;;;;11.13;7.50;;;;;;;-5.83;95.88;97678.50;6227548;22;20526;-80
2022/01/05 14:06:24;;;;;;;12.43;8.75;;;;;;;-5.86;95.91;97672.69;6209280;22;20038;-81
2022/01/05 14:08:52;;;;;;;15.98;11.18;;;;;;;-5.86;95.66;97673.50;6171072;22;20023;-78
2022/01/05 14:11:18;;;;;;;10.52;8.80;;;;;;;-5.78;96.02;97650.41;6193287;22;20023;-78
2022/01/05 14:13:50;;;;;;;7.68;6.53;;;;;;;-5.79;96.06;97669.06;6244218;22;20360;-78
2022/01/05 14:16:29;;;;;;;7.78;6.93;;;;;;;-5.77;95.32;97662.25;6218914;22;20019;-77
2022/01/05 14:19:07;;;;;;;6.22;5.63;;;;;;;-5.76;95.81;97658.84;6193474;22;20027;-77
2022/01/05 14:21:35;;;;;;;6.05;5.47;;;;;;;-5.75;94.80;97667.28;6194426;22;20019;-80
2022/01/05 14:24:02;;;;;;;7.00;6.32;;;;;;;-5.77;95.53;97659.72;6246326;22;20022;-79
2022/01/05 14:26:29;;;;;;;5.85;5.25;;;;;;;-5.82;95.38;97642.03;6171461;22;20024;-79
2022/01/05 14:28:59;;;;;;;9.68;8.13;;;;;;;-5.67;94.91;97647.63;6197517;22;20023;-80
2022/01/05 14:31:37;;;;;;;7.32;6.15;;;;;;;-5.69;94.48;97642.56;6254140;22;20019;-81
2022/01/05 14:34:04;;;;;;;7.55;6.78;;;;;;;-5.70;94.34;97646.00;6179319;22;20199;-80
2022/01/05 14:36:37;;;;;;;7.35;5.72;;;;;;;-5.61;94.59;97666.06;6201277;22;20106;-80
2022/01/05 14:39:14;;;;;;;12.15;9.45;;;;;;;-5.64;94.55;97668.69;6206162;22;20035;-80
2022/01/05 14:41:44;;;;;;;8.23;7.35;;;;;;;-5.57;94.38;97666.81;6199765;22;20034;-80
2022/01/05 14:44:21;;;;;;;6.68;6.07;;;;;;;-5.64;94.48;97645.81;6248139;22;20410;-80
2022/01/05 14:46:56;;;;;;;9.63;6.70;;;;;;;-5.52;94.39;97673.44;6174792;22;20023;-78
2022/01/05 14:49:23;;;;;;;8.30;6.68;;;;;;;-5.53;94.71;97664.16;6222689;22;20458;-78
2022/01/05 14:51:49;;;;;;;9.60;8.05;;;;;;;-5.58;94.63;97660.91;6172812;22;20106;-79
2022/01/05 14:54:18;;;;;;;9.57;5.95;;;;;;;-5.51;94.63;97661.56;6223728;22;20019;-78
2022/01/05 14:56:54;;;;;;;7.15;5.85;;;;;;;-5.49;94.54;97660.66;6224387;22;20024;-78
2022/01/05 14:59:21;;;;;;;8.90;7.28;;;;;;;-5.48;94.79;97666.56;6201813;22;20015;-78
2022/01/05 15:01:49;;;;;;;10.60;8.00;;;;;;;-5.49;94.59;97660.66;6197066;22;20540;-77
2022/01/05 15:04:15;;;;;;;13.27;8.32;;;;;;;-5.46;95.25;97660.56;6248188;22;20042;-81
2022/01/05 15:06:41;;;;;;;15.05;11.68;;;;;;;-5.49;95.30;97642.88;6178626;22;20023;-80
2022/01/05 15:09:08;;;;;;;5.53;5.00;;;;;;;-5.41;94.23;97646.06;6155611;22;20016;-80
2022/01/05 15:11:35;;;;;;;3.92;3.63;;;;;;;-5.38;94.49;97647.66;6154265;22;20471;-80
2022/01/05 15:14:05;;;;;;;6.57;5.90;;;;;;;-5.42;93.84;97643.53;6252872;22;20022;-79
2022/01/05 15:16:37;;;;;;;3.20;3.00;;;;;;;-5.39;94.41;97648.53;6179385;22;20051;-80
2022/01/05 15:19:30;;;;;;;11.48;7.35;;;;;;;-5.34;94.27;97667.03;6242694;22;20074;-79
2022/01/05 15:24:50;;;;;;;14.52;9.43;;;;;;;-5.33;94.35;97651.75;6213331;22;20091;-81
2022/01/05 15:27:16;;;;;;;14.77;9.20;;;;;;;-5.37;94.46;97645.09;6183799;22;20024;-80
2022/01/05 15:29:43;;;;;;;9.43;5.43;;;;;;;-5.36;93.78;97640.81;6207375;22;20023;-82
2022/01/05 15:32:10;;;;;;;12.85;9.40;;;;;;;-5.37;94.59;97640.00;6258137;22;20031;-81
2022/01/05 15:34:42;;;;;;;15.07;10.10;;;;;;;-5.39;94.51;97636.66;6185495;22;20066;-76
2022/01/05 15:37:12;;;;;;;21.90;14.55;;;;;;;-5.37;94.51;97632.38;6179124;22;20031;-81
2022/01/05 15:39:39;;;;;;;17.85;12.35;;;;;;;-5.36;94.41;97639.13;6262304;22;20087;-81
2022/01/05 15:42:05;;;;;;;14.43;9.98;;;;;;;-5.32;94.90;97645.78;6258119;22;20084;-80
2022/01/05 15:44:32;;;;;;;17.33;12.40;;;;;;;-5.34;94.60;97642.47;6232406;22;20209;-80